FW7003 Weather Reports


time (UTC)temp
F
wind
direction
speed
knots
gust
knots
rain 1hr
in
rain 24hr
in
rain mn
in
humidity
%
barometer
mb
20211025050428 69 38 1.7 1.7 0.00 0.00 0.00 10 1015.3
20211025045926 69 36 0.9 0.9 0.00 0.00 0.00 10 1015.3
20211025045424 69 31 0.9 1.7 0.00 0.00 0.00 10 1015.1
20211025044921 70 33 0.9 1.7 0.00 0.00 0.00 10 1015.2
20211025044417 70 37 0.9 1.7 0.00 0.00 0.00 10 1015.1
20211025043915 70 46 0.9 0.9 0.00 0.00 0.00 10 1015.2
20211025043414 71 47 0.9 1.7 0.00 0.00 0.00 10 1015.2
20211025042913 71 54 1.7 1.7 0.00 0.00 0.00 10 1015.2
20211025042411 71 55 1.7 1.7 0.00 0.00 0.00 10 1015.0
20211025041910 71 61 0.0 0.9 0.00 0.00 0.00 10 1014.8
20211025041408 71 56 0.0 0.9 0.00 0.00 0.00 10 1014.9
20211025040908 71 42 0.9 0.9 0.00 0.00 0.00 10 1014.9
20211025040407 72 43 0.9 0.9 0.00 0.00 0.00 10 1014.9
20211025035903 72 45 1.7 1.7 0.00 0.00 0.00 10 1014.7
20211025035403 72 46 0.0 0.9 0.00 0.00 0.00 10 1014.6
20211025034858 72 41 1.7 2.6 0.00 0.00 0.00 10 1014.5
20211025034357 73 29 0.9 0.9 0.00 0.00 0.00 10 1014.5
20211025033857 73 28 0.9 0.9 0.00 0.00 0.00 10 1014.3
20211025033356 73 25 0.0 0.9 0.00 0.00 0.00 10 1014.4
20211025032854 74 17 1.7 1.7 0.00 0.00 0.00 10 1014.1
20211025032351 74 20 1.7 1.7 0.00 0.00 0.00 10 1014.0
20211025031849 75 19 2.6 2.6 0.00 0.00 0.00 10 1014.1
20211025031349 75 22 0.9 0.9 0.00 0.00 0.00 10 1014.0
20211025030847 75 27 2.6 4.3 0.00 0.00 0.00 10 1013.7
20211025030346 76 38 0.9 1.7 0.00 0.00 0.00 10 1013.9
20211025025844 76 25 2.6 4.3 0.00 0.00 0.00 10 1013.8
20211025025343 77 27 1.7 2.6 0.00 0.00 0.00 10 1013.7
20211025024842 77 13 2.6 2.6 0.00 0.00 0.00 10 1013.5
20211025024338 78 35 1.7 2.6 0.00 0.00 0.00 10 1013.6
20211025023838 78 37 1.7 1.7 0.00 0.00 0.00 10 1013.4
20211025023337 79 38 0.9 1.7 0.00 0.00 0.00 10 1013.5
20211025022836 79 28 2.6 2.6 0.00 0.00 0.00 10 1013.3
20211025022335 79 30 1.7 1.7 0.00 0.00 0.00 10 1013.4
20211025021834 80 28 2.6 2.6 0.00 0.00 0.00 10 1013.1
20211025021332 80 41 0.9 0.9 0.00 0.00 0.00 10 1013.0
20211025020831 80 59 0.0 0.0 0.00 0.00 0.00 10 1012.9
20211025020329 79 57 1.7 1.7 0.00 0.00 0.00 10 1012.9
20211025015822 79 27 1.7 2.6 0.00 0.00 0.00 10 1012.6
20211025015321 78 50 2.6 2.6 0.00 0.00 0.00 10 1012.6
20211025014820 78 68 1.7 2.6 0.00 0.00 0.00 10 1012.8
20211025014319 79 48 0.9 0.9 0.00 0.00 0.00 10 1012.4
20211025013816 79 29 1.7 2.6 0.00 0.00 0.00 10 1012.4
20211025013316 80 207 0.0 0.9 0.00 0.00 0.00 10 1012.4
20211025012816 80 216 0.9 1.7 0.00 0.00 0.00 10 1012.3
20211025012314 80 177 2.6 5.2 0.00 0.00 0.00 10 1012.2
20211025011813 81 174 6.1 6.1 0.00 0.00 0.00 10 1011.8
20211025011313 81 181 3.5 4.3 0.00 0.00 0.00 10 1011.8
20211025010810 81 193 3.5 5.2 0.00 0.00 0.00 10 1011.8
20211025010309 81 213 1.7 1.7 0.00 0.00 0.00 10 1011.8
20211025005808 81 171 5.2 7.0 0.00 0.00 0.00 10 1011.9
20211025005307 81 222 0.9 1.7 0.00 0.00 0.00 10 1011.7
20211025004804 81 238 0.9 0.9 0.00 0.00 0.00 10 1011.8
20211025004302 80 339 5.2 7.0 0.00 0.00 0.00 10 1011.4
20211025003800 81 287 1.7 1.7 0.00 0.00 0.00 10 1011.3
20211025003258 81 278 4.3 5.2 0.00 0.00 0.00 10 1011.1
20211025002756 81 208 3.5 5.2 0.00 0.00 0.00 10 1010.3
20211025002254 81 197 3.5 5.2 0.00 0.00 0.00 10 1010.3
20211025001753 81 173 6.1 7.0 0.00 0.00 0.00 10 1010.1
20211025001251 82 154 6.1 7.8 0.00 0.00 0.00 10 1010.3
20211025000750 82 190 6.1 7.8 0.00 0.00 0.00 10 1009.9
20211025000250 82 165 7.0 7.0 0.00 0.00 0.00 10 1010.0
20211024235747 82 196 7.0 7.8 0.00 0.00 0.00 10 1009.9
20211024235246 82 216 5.2 6.1 0.00 0.00 0.00 10 1010.0
20211024234746 82 178 7.0 7.8 0.00 0.00 0.00 10 1009.6
20211024234244 83 195 6.1 7.8 0.00 0.00 0.00 10 1009.8
20211024233742 83 166 6.1 6.1 0.00 0.00 0.00 10 1009.8
20211024233240 83 187 6.1 7.8 0.00 0.00 0.00 10 1009.6
20211024232737 84 167 6.1 7.0 0.00 0.00 0.00 10 1009.8
20211024232237 84 177 7.8 7.8 0.00 0.00 0.00 10 1009.7
20211024231736 84 201 7.0 8.7 0.00 0.00 0.00 10 1009.6
20211024231230 84 195 4.3 5.2 0.00 0.00 0.00 10 1009.8
20211024230729 85 185 9.6 11.3 0.00 0.00 0.00 10 1009.7
20211024230228 85 198 10.4 12.2 0.00 0.00 0.00 10 1009.5
20211024225720 85 177 7.8 8.7 0.00 0.00 0.00 10 1009.6
20211024225219 85 154 4.3 5.2 0.00 0.00 0.00 10 1009.6
20211024224719 85 163 10.4 13.0 0.00 0.00 0.00 10 1009.5
20211024224218 85 220 4.3 6.1 0.00 0.00 0.00 10 1009.7
20211024223717 85 176 7.8 8.7 0.00 0.00 0.00 10 1009.5
20211024223215 85 194 5.2 7.0 0.00 0.00 0.00 10 1009.8
20211024222713 85 193 7.8 11.3 0.00 0.00 0.00 10 1009.7
20211024222212 85 203 8.7 11.3 0.00 0.00 0.00 10 1009.7
20211024221712 85 183 5.2 6.1 0.00 0.00 0.00 10 1009.9
20211024221211 86 153 6.1 7.0 0.00 0.00 0.00 10 1009.8
20211024220710 85 169 5.2 7.0 0.00 0.00 0.00 10 1009.9
20211024220209 85 173 7.0 7.8 0.00 0.00 0.00 10 1009.8
20211024215705 86 220 7.0 8.7 0.00 0.00 0.00 10 1009.8
20211024215203 86 182 5.2 7.0 0.00 0.00 0.00 10 1009.8
20211024214702 87 215 6.1 7.0 0.00 0.00 0.00 10 1009.7
20211024214202 86 177 8.7 12.2 0.00 0.00 0.00 10 1009.6
20211024213659 86 196 9.6 11.3 0.00 0.00 0.00 10 1009.8
20211024213158 86 161 6.1 8.7 0.00 0.00 0.00 10 1009.8
20211024212658 87 164 7.0 8.7 0.00 0.00 0.00 10 1009.6
20211024212157 87 195 7.8 9.6 0.00 0.00 0.00 10 1009.8
20211024211655 86 158 6.1 7.0 0.00 0.00 0.00 10 1009.5
20211024211154 87 207 5.2 7.0 0.00 0.00 0.00 10 1009.6
20211024210654 87 215 4.3 7.0 0.00 0.00 0.00 10 1009.4
20211024210153 87 223 7.0 8.7 0.00 0.00 0.00 10 1009.6
20211024205648 86 223 4.3 5.2 0.00 0.00 0.00 10 1009.5
20211024205148 86 169 10.4 12.2 0.00 0.00 0.00 10 1009.4
20211024204647 85 176 6.1 7.0 0.00 0.00 0.00 10 1009.4
20211024204145 85 196 5.2 7.8 0.00 0.00 0.00 10 1009.6
20211024203644 86 192 7.8 8.7 0.00 0.00 0.00 10 1009.5
20211024203142 86 227 4.3 7.0 0.00 0.00 0.00 10 1009.6
20211024202642 87 253 4.3 6.1 0.00 0.00 0.00 10 1009.2
20211024202142 86 211 4.3 6.1 0.00 0.00 0.00 10 1009.4
20211024201640 86 176 10.4 13.9 0.00 0.00 0.00 10 1009.1
20211024201139 85 195 4.3 6.1 0.00 0.00 0.00 10 1009.4
20211024200636 85 152 8.7 11.3 0.00 0.00 0.00 10 1009.4
20211024200135 86 196 6.1 7.8 0.00 0.00 0.00 10 1009.3
20211024195634 86 185 8.7 9.6 0.00 0.00 0.00 10 1009.3
20211024195132 85 227 8.7 11.3 0.00 0.00 0.00 10 1009.5
20211024194631 85 238 2.6 4.3 0.00 0.00 0.00 10 1009.7
20211024194130 85 216 6.1 7.8 0.00 0.00 0.00 10 1009.6
20211024193629 85 162 5.2 8.7 0.00 0.00 0.00 10 1009.7
20211024193128 84 204 5.2 7.8 0.00 0.00 0.00 10 1009.5
20211024192625 84 165 9.6 11.3 0.00 0.00 0.00 10 1009.7
20211024192124 84 148 7.0 7.8 0.00 0.00 0.00 10 1009.6
20211024191620 84 180 10.4 14.8 0.00 0.00 0.00 10 1009.8
20211024191119 84 159 7.8 8.7 0.00 0.00 0.00 10 1010.1
20211024190618 83 192 12.2 14.8 0.00 0.00 0.00 10 1010.1
20211024190117 82 163 9.6 12.2 0.00 0.00 0.00 10 1010.1
20211024185616 82 153 13.0 19.1 0.00 0.00 0.00 10 1010.2
20211024185114 83 165 6.1 8.7 0.00 0.00 0.00 10 1010.7
20211024184612 83 206 7.0 8.7 0.00 0.00 0.00 10 1010.7
20211024184111 82 162 7.8 9.6 0.00 0.00 0.00 10 1010.7
20211024183608 82 234 8.7 9.6 0.00 0.00 0.00 10 1010.8
20211024183107 82 133 7.0 7.8 0.00 0.00 0.00 10 1011.0
20211024182606 82 118 6.1 7.0 0.00 0.00 0.00 10 1011.0
20211024182105 81 178 7.8 9.6 0.00 0.00 0.00 10 1010.9
20211024181604 81 217 7.8 9.6 0.00 0.00 0.00 10 1010.7
20211024181100 80 179 7.0 8.7 0.00 0.00 0.00 10 1010.8
20211024180559 80 238 11.3 14.8 0.00 0.00 0.00 10 1010.8
20211024180058 81 213 6.1 8.7 0.00 0.00 0.00 10 1010.8
20211024175556 81 189 8.7 9.6 0.00 0.00 0.00 10 1010.7
20211024175055 80 195 8.7 9.6 0.00 0.00 0.00 10 1011.0
20211024174553 79 183 7.0 8.7 0.00 0.00 0.00 10 1011.0
20211024174052 79 218 6.1 7.8 0.00 0.00 0.00 10 1011.3
20211024173549 79 166 9.6 12.2 0.00 0.00 0.00 10 1010.9
20211024173048 79 170 12.2 14.8 0.00 0.00 0.00 10 1011.4
20211024172546 79 156 6.1 8.7 0.00 0.00 0.00 10 1011.5
20211024172046 79 190 13.0 18.2 0.00 0.00 0.00 10 1011.4
20211024171544 79 177 7.8 11.3 0.00 0.00 0.00 10 1011.4
20211024171044 79 165 8.7 9.6 0.00 0.00 0.00 10 1011.6
20211024170540 79 224 7.0 9.6 0.00 0.00 0.00 10 1011.7
20211024170039 79 232 7.8 11.3 0.00 0.00 0.00 10 1011.6
20211024165538 78 175 9.6 11.3 0.00 0.00 0.00 10 1011.9
20211024165036 78 180 10.4 12.2 0.00 0.00 0.00 10 1011.9
20211024164534 78 179 11.3 12.2 0.00 0.00 0.00 10 1011.9
20211024164034 77 200 7.8 12.2 0.00 0.00 0.00 10 1011.7
20211024163531 78 193 15.6 20.0 0.00 0.00 0.00 10 1012.0
20211024163030 78 214 9.6 12.2 0.00 0.00 0.00 10 1011.9
20211024162527 78 163 7.8 11.3 0.00 0.00 0.00 10 1011.9
20211024162026 78 172 9.6 13.0 0.00 0.00 0.00 10 1012.0
20211024161524 78 172 8.7 12.2 0.00 0.00 0.00 10 1011.9
20211024161022 78 210 7.8 8.7 0.00 0.00 0.00 10 1011.9
20211024160521 78 184 6.1 8.7 0.00 0.00 0.00 10 1012.3
20211024160021 78 154 5.2 7.0 0.00 0.00 0.00 10 1012.1
20211024155520 77 164 9.6 11.3 0.00 0.00 0.00 10 1012.3
20211024155018 77 200 9.6 12.2 0.00 0.00 0.00 10 1012.1
20211024154517 77 203 7.8 11.3 0.00 0.00 0.00 10 1012.3
20211024154015 77 209 6.1 7.0 0.00 0.00 0.00 10 1012.3
20211024153513 77 205 7.0 8.7 0.00 0.00 0.00 10 1012.4
20211024153013 77 169 10.4 13.9 0.00 0.00 0.00 10 1012.4
20211024152513 77 211 7.0 8.7 0.00 0.00 0.00 10 1012.0
20211024152012 76 173 11.3 15.6 0.00 0.00 0.00 10 1012.1
20211024151510 75 182 8.7 9.6 0.00 0.00 0.00 10 1011.9
20211024151009 75 221 9.6 11.3 0.00 0.00 0.00 10 1011.9
20211024150508 75 187 11.3 13.9 0.00 0.00 0.00 10 1012.1
20211024150006 75 204 11.3 13.0 0.00 0.00 0.00 10 1012.4
20211024145504 75 171 9.6 14.8 0.00 0.00 0.00 10 1012.3
20211024145001 75 172 7.0 7.8 0.00 0.00 0.00 10 1012.4
20211024144501 75 181 11.3 14.8 0.00 0.00 0.00 10 1012.3
20211024144000 75 179 7.8 8.7 0.00 0.00 0.00 10 1012.5
20211024143458 74 154 7.0 7.8 0.00 0.00 0.00 10 1012.5
20211024142956 74 155 9.6 12.2 0.00 0.00 0.00 10 1012.4
20211024142456 73 180 7.8 9.6 0.00 0.00 0.00 10 1012.3
20211024141953 73 203 12.2 15.6 0.00 0.00 0.00 10 1011.8
20211024141453 72 185 6.1 7.8 0.00 0.00 0.00 10 1011.9
20211024140952 72 139 7.8 8.7 0.00 0.00 0.00 10 1011.5
20211024140452 72 151 11.3 13.9 0.00 0.00 0.00 10 1011.8
20211024135951 72 153 10.4 12.2 0.00 0.00 0.00 10 1011.8
20211024135450 71 198 9.6 11.3 0.00 0.00 0.00 10 1012.0
20211024134948 71 175 7.0 7.0 0.00 0.00 0.00 10 1012.0
20211024134446 71 180 9.6 12.2 0.00 0.00 0.00 10 1012.0
20211024133945 71 228 7.8 9.6 0.00 0.00 0.00 10 1011.9
20211024133434 70 208 9.6 11.3 0.00 0.00 0.00 10 1011.9
20211024132933 70 186 7.8 11.3 0.00 0.00 0.00 10 1011.9
20211024132433 70 200 7.8 8.7 0.00 0.00 0.00 10 1012.1
20211024131931 70 183 7.8 9.6 0.00 0.00 0.00 10 1012.0
20211024131427 70 177 6.1 7.8 0.00 0.00 0.00 10 1012.1
20211024130926 69 168 7.0 7.8 0.00 0.00 0.00 10 1012.2
20211024130424 69 139 6.1 7.0 0.00 0.00 0.00 10 1011.9
20211024125923 69 167 7.8 9.6 0.00 0.00 0.00 10 1012.1
20211024125422 69 139 5.2 7.0 0.00 0.00 0.00 10 1012.0
20211024124922 69 211 4.3 6.1 0.00 0.00 0.00 10 1012.3
20211024124420 69 224 6.1 7.8 0.00 0.00 0.00 10 1012.1
20211024123918 69 191 6.1 7.8 0.00 0.00 0.00 10 1012.1
20211024123418 69 204 4.3 5.2 0.00 0.00 0.00 10 1012.2
20211024122915 69 212 4.3 6.1 0.00 0.00 0.00 10 1012.0
20211024122414 69 203 6.1 7.8 0.00 0.00 0.00 10 1011.9
20211024121913 69 174 6.1 7.8 0.00 0.00 0.00 10 1012.1
20211024121414 69 185 6.1 6.1 0.00 0.00 0.00 10 1012.2
20211024120912 69 196 6.1 9.6 0.00 0.00 0.00 10 1011.9
20211024120410 69 177 4.3 5.2 0.00 0.00 0.00 10 1012.0
20211024115910 69 202 13.0 14.8 0.00 0.00 0.00 10 1011.9
20211024115408 69 194 8.7 9.6 0.00 0.00 0.00 10 1011.9
20211024114906 69 182 7.0 8.7 0.00 0.00 0.00 10 1011.9
20211024114405 69 187 7.8 8.7 0.00 0.00 0.00 10 1011.9
20211024113904 69 223 7.0 7.8 0.00 0.00 0.00 10 1011.8
20211024113404 69 204 7.8 9.6 0.00 0.00 0.00 10 1011.7
20211024112903 69 215 6.1 8.7 0.00 0.00 0.00 10 1011.9
20211024112401 69 186 7.0 8.7 0.00 0.00 0.00 10 1011.8
20211024111859 69 193 6.1 7.8 0.00 0.00 0.00 10 1011.5
20211024111358 69 190 8.7 11.3 0.00 0.00 0.00 10 1011.7
20211024110857 68 201 6.1 7.8 0.00 0.00 0.00 10 1011.4
20211024110356 68 192 9.6 12.2 0.00 0.00 0.00 10 1011.3
20211024105854 68 221 6.1 7.0 0.00 0.00 0.00 10 1011.5
20211024105352 68 189 6.1 7.0 0.00 0.00 0.00 10 1011.4
20211024104850 68 208 10.4 12.2 0.00 0.00 0.00 10 1011.5
20211024104349 68 175 11.3 13.0 0.00 0.00 0.00 10 1011.5
20211024103846 68 218 5.2 7.0 0.00 0.00 0.00 10 1011.3
20211024103344 68 138 11.3 15.6 0.00 0.00 0.00 10 1011.0
20211024102843 68 123 7.8 11.3 0.00 0.00 0.00 10 1011.1
20211024102344 68 140 9.6 12.2 0.00 0.00 0.00 10 1011.0
20211024101842 68 176 5.2 7.8 0.00 0.00 0.00 10 1011.1
20211024101339 68 195 6.1 7.8 0.00 0.00 0.00 10 1011.1
20211024100837 68 178 3.5 5.2 0.00 0.00 0.00 10 1011.3
20211024100337 68 194 4.3 6.1 0.00 0.00 0.00 10 1011.1
20211024095836 68 181 7.0 11.3 0.00 0.00 0.00 10 1011.1
20211024095336 68 187 2.6 4.3 0.00 0.00 0.00 10 1011.1
20211024094836 68 151 11.3 12.2 0.00 0.00 0.00 10 1010.9
20211024094334 68 175 7.0 7.8 0.00 0.00 0.00 10 1011.0
20211024093833 68 173 10.4 13.0 0.00 0.00 0.00 10 1011.0
20211024093333 68 160 13.0 13.9 0.00 0.00 0.00 10 1011.1
20211024092831 68 224 8.7 11.3 0.00 0.00 0.00 10 1011.3
20211024092331 69 214 6.1 7.8 0.00 0.00 0.00 10 1011.4
20211024091828 69 228 7.0 7.8 0.00 0.00 0.00 10 1011.1
20211024091327 69 225 5.2 7.0 0.00 0.00 0.00 10 1011.4
20211024090826 69 172 6.1 7.0 0.00 0.00 0.00 10 1011.5
20211024090325 69 200 8.7 9.6 0.00 0.00 0.00 10 1011.4
20211024085822 69 210 7.8 13.0 0.00 0.00 0.00 10 1011.5
20211024085322 69 173 7.8 9.6 0.00 0.00 0.00 10 1011.8
20211024084820 69 159 7.8 8.7 0.00 0.00 0.00 10 1011.4
20211024084318 69 179 6.1 7.0 0.00 0.00 0.00 10 1011.5
20211024083817 69 221 6.1 8.7 0.00 0.00 0.00 10 1011.4
20211024083316 69 196 7.0 12.2 0.00 0.00 0.00 10 1011.7
20211024082815 69 205 5.2 6.1 0.00 0.00 0.00 10 1011.5
20211024082313 69 208 6.1 7.8 0.00 0.00 0.00 10 1011.7
20211024081811 70 156 11.3 13.0 0.00 0.00 0.00 10 1011.5
20211024081309 70 217 7.8 9.6 0.00 0.00 0.00 10 1011.7
20211024080808 70 189 10.4 13.0 0.00 0.00 0.00 10 1011.7
20211024080304 70 169 8.7 11.3 0.00 0.00 0.00 10 1011.9
20211024075804 70 194 6.1 7.8 0.00 0.00 0.00 10 1011.9
20211024075306 70 204 10.4 13.9 0.00 0.00 0.00 10 1011.9
20211024074803 70 152 9.6 12.2 0.00 0.00 0.00 10 1012.0
20211024074301 71 164 7.8 9.6 0.00 0.00 0.00 10 1011.8
20211024073801 71 232 7.8 11.3 0.00 0.00 0.00 10 1012.0
20211024073301 71 175 11.3 14.8 0.00 0.00 0.00 10 1011.8
20211024072759 71 187 7.8 8.7 0.00 0.00 0.00 10 1011.9
20211024072258 71 188 6.1 8.7 0.00 0.00 0.00 10 1011.8
20211024071756 71 149 7.0 9.6 0.00 0.00 0.00 10 1012.0
20211024071256 71 195 5.2 6.1 0.00 0.00 0.00 10 1012.0
20211024070755 72 147 5.2 6.1 0.00 0.00 0.00 10 1011.7
20211024070254 72 170 7.8 11.3 0.00 0.00 0.00 10 1012.1
20211024065752 72 216 11.3 13.0 0.00 0.00 0.00 10 1011.8
20211024065251 72 198 6.1 7.8 0.00 0.00 0.00 10 1011.9
20211024064749 72 173 7.0 8.7 0.00 0.00 0.00 10 1011.9
20211024064246 72 165 10.4 13.9 0.00 0.00 0.00 10 1011.8
20211024063745 72 169 11.3 13.9 0.00 0.00 0.00 10 1011.4
20211024063243 73 146 9.6 11.3 0.00 0.00 0.00 10 1011.6
20211024062741 73 171 9.6 11.3 0.00 0.00 0.00 10 1011.6
20211024062240 73 199 11.3 13.9 0.00 0.00 0.00 10 1011.5
20211024061739 73 180 10.4 12.2 0.00 0.00 0.00 10 1011.4
20211024061238 73 163 6.1 8.7 0.00 0.00 0.00 10 1011.5
20211024060737 73 151 9.6 9.6 0.00 0.00 0.00 10 1011.4
20211024060236 73 180 11.3 13.0 0.00 0.00 0.00 10 1011.6
20211024055735 73 135 7.8 11.3 0.00 0.00 0.00 10 1011.3
20211024055236 74 171 9.6 13.0 0.00 0.00 0.00 10 1011.5
20211024054729 74 146 9.6 11.3 0.00 0.00 0.00 10 1011.3
20211024054227 74 179 7.8 11.3 0.00 0.00 0.00 10 1011.6
20211024053724 74 166 10.4 13.0 0.00 0.00 0.00 10 1011.4
20211024053223 74 172 12.2 13.9 0.00 0.00 0.00 10 1011.4
20211024052721 74 192 9.6 12.2 0.00 0.00 0.00 10 1011.5
20211024052219 75 159 7.8 9.6 0.00 0.00 0.00 10 1011.5
20211024051717 75 146 9.6 9.6 0.00 0.00 0.00 10 1011.6
20211024051216 75 168 11.3 13.9 0.00 0.00 0.00 10 1011.4